sensor_id;sensor_type;location;lat;lon;timestamp;P1;durP1;ratioP1;P2;durP2;ratioP2
35877;SDS011;21982;49.804;24.072;2023-04-25T00:01:03;11.38;;;7.20;;
35877;SDS011;21982;49.804;24.072;2023-04-25T00:03:33;10.70;;;7.20;;
35877;SDS011;21982;49.804;24.072;2023-04-25T00:06:00;11.20;;;8.23;;
35877;SDS011;21982;49.804;24.072;2023-04-25T00:08:28;12.90;;;7.47;;
35877;SDS011;21982;49.804;24.072;2023-04-25T00:10:55;15.80;;;7.78;;
35877;SDS011;21982;49.804;24.072;2023-04-25T00:13:21;13.27;;;7.60;;
35877;SDS011;21982;49.804;24.072;2023-04-25T00:15:47;11.88;;;7.57;;
35877;SDS011;21982;49.804;24.072;2023-04-25T00:18:13;11.90;;;7.05;;
35877;SDS011;21982;49.804;24.072;2023-04-25T00:20:39;13.40;;;8.10;;
35877;SDS011;21982;49.804;24.072;2023-04-25T00:23:05;14.80;;;8.27;;
35877;SDS011;21982;49.804;24.072;2023-04-25T00:25:30;14.88;;;8.70;;
35877;SDS011;21982;49.804;24.072;2023-04-25T00:27:56;13.05;;;8.48;;
35877;SDS011;21982;49.804;24.072;2023-04-25T00:30:21;16.15;;;9.68;;
35877;SDS011;21982;49.804;24.072;2023-04-25T00:32:47;14.82;;;8.10;;
35877;SDS011;21982;49.804;24.072;2023-04-25T00:35:13;14.43;;;7.35;;
35877;SDS011;21982;49.804;24.072;2023-04-25T00:37:39;13.43;;;8.40;;
35877;SDS011;21982;49.804;24.072;2023-04-25T00:40:05;11.10;;;7.53;;
35877;SDS011;21982;49.804;24.072;2023-04-25T00:42:31;16.70;;;7.82;;
35877;SDS011;21982;49.804;24.072;2023-04-25T00:44:58;12.02;;;7.82;;
35877;SDS011;21982;49.804;24.072;2023-04-25T00:47:24;12.45;;;7.53;;
35877;SDS011;21982;49.804;24.072;2023-04-25T00:49:50;13.15;;;8.48;;
35877;SDS011;21982;49.804;24.072;2023-04-25T00:52:16;13.70;;;8.00;;
35877;SDS011;21982;49.804;24.072;2023-04-25T00:54:41;11.25;;;7.63;;
35877;SDS011;21982;49.804;24.072;2023-04-25T00:57:07;13.98;;;8.30;;
35877;SDS011;21982;49.804;24.072;2023-04-25T00:59:33;13.27;;;7.90;;
35877;SDS011;21982;49.804;24.072;2023-04-25T01:01:59;11.77;;;8.65;;
35877;SDS011;21982;49.804;24.072;2023-04-25T01:04:29;12.20;;;7.90;;
35877;SDS011;21982;49.804;24.072;2023-04-25T01:06:54;12.13;;;8.38;;
35877;SDS011;21982;49.804;24.072;2023-04-25T01:09:20;13.52;;;8.55;;
35877;SDS011;21982;49.804;24.072;2023-04-25T01:11:48;12.38;;;9.30;;
35877;SDS011;21982;49.804;24.072;2023-04-25T01:14:14;12.55;;;8.20;;
35877;SDS011;21982;49.804;24.072;2023-04-25T01:16:41;11.82;;;8.88;;
35877;SDS011;21982;49.804;24.072;2023-04-25T01:19:09;12.45;;;8.18;;
35877;SDS011;21982;49.804;24.072;2023-04-25T01:21:38;13.95;;;8.80;;
35877;SDS011;21982;49.804;24.072;2023-04-25T01:24:04;12.75;;;8.02;;
35877;SDS011;21982;49.804;24.072;2023-04-25T01:26:30;14.43;;;9.40;;
35877;SDS011;21982;49.804;24.072;2023-04-25T01:28:56;13.40;;;7.80;;
35877;SDS011;21982;49.804;24.072;2023-04-25T01:31:21;17.13;;;8.70;;
35877;SDS011;21982;49.804;24.072;2023-04-25T01:33:47;13.45;;;8.93;;
35877;SDS011;21982;49.804;24.072;2023-04-25T01:36:13;20.17;;;10.70;;
35877;SDS011;21982;49.804;24.072;2023-04-25T01:38:40;14.73;;;9.35;;
35877;SDS011;21982;49.804;24.072;2023-04-25T01:41:07;14.70;;;8.90;;
35877;SDS011;21982;49.804;24.072;2023-04-25T01:43:32;16.60;;;9.05;;
35877;SDS011;21982;49.804;24.072;2023-04-25T01:45:58;13.23;;;8.35;;
35877;SDS011;21982;49.804;24.072;2023-04-25T01:48:23;12.73;;;8.20;;
35877;SDS011;21982;49.804;24.072;2023-04-25T01:50:50;14.80;;;9.32;;
35877;SDS011;21982;49.804;24.072;2023-04-25T01:53:16;13.80;;;9.30;;
35877;SDS011;21982;49.804;24.072;2023-04-25T01:55:42;11.18;;;8.07;;
35877;SDS011;21982;49.804;24.072;2023-04-25T01:58:07;12.50;;;8.48;;
35877;SDS011;21982;49.804;24.072;2023-04-25T02:00:35;15.27;;;8.40;;
35877;SDS011;21982;49.804;24.072;2023-04-25T02:03:05;14.35;;;8.85;;
35877;SDS011;21982;49.804;24.072;2023-04-25T02:05:35;12.90;;;8.30;;
35877;SDS011;21982;49.804;24.072;2023-04-25T02:08:01;15.65;;;8.07;;
35877;SDS011;21982;49.804;24.072;2023-04-25T02:10:28;14.27;;;7.30;;
35877;SDS011;21982;49.804;24.072;2023-04-25T02:12:53;15.65;;;8.57;;
35877;SDS011;21982;49.804;24.072;2023-04-25T02:15:20;17.40;;;8.35;;
35877;SDS011;21982;49.804;24.072;2023-04-25T02:17:45;12.95;;;8.38;;
35877;SDS011;21982;49.804;24.072;2023-04-25T02:20:11;14.85;;;7.95;;
35877;SDS011;21982;49.804;24.072;2023-04-25T02:22:37;17.00;;;8.73;;
35877;SDS011;21982;49.804;24.072;2023-04-25T02:25:03;12.90;;;8.75;;
35877;SDS011;21982;49.804;24.072;2023-04-25T02:27:29;13.70;;;8.27;;
35877;SDS011;21982;49.804;24.072;2023-04-25T02:29:57;14.52;;;7.75;;
35877;SDS011;21982;49.804;24.072;2023-04-25T02:32:22;14.13;;;7.82;;
35877;SDS011;21982;49.804;24.072;2023-04-25T02:34:47;13.75;;;9.40;;
35877;SDS011;21982;49.804;24.072;2023-04-25T02:37:13;14.98;;;9.35;;
35877;SDS011;21982;49.804;24.072;2023-04-25T02:39:38;14.77;;;8.15;;
35877;SDS011;21982;49.804;24.072;2023-04-25T02:42:05;13.27;;;8.68;;
35877;SDS011;21982;49.804;24.072;2023-04-25T02:44:31;13.10;;;7.72;;
35877;SDS011;21982;49.804;24.072;2023-04-25T02:46:56;12.80;;;8.20;;
35877;SDS011;21982;49.804;24.072;2023-04-25T02:49:22;11.60;;;7.88;;
35877;SDS011;21982;49.804;24.072;2023-04-25T02:51:47;16.63;;;6.82;;
35877;SDS011;21982;49.804;24.072;2023-04-25T02:56:48;12.77;;;8.32;;
35877;SDS011;21982;49.804;24.072;2023-04-25T02:59:13;11.93;;;7.40;;
35877;SDS011;21982;49.804;24.072;2023-04-25T03:01:40;13.60;;;7.55;;
35877;SDS011;21982;49.804;24.072;2023-04-25T03:04:05;11.93;;;7.53;;
35877;SDS011;21982;49.804;24.072;2023-04-25T03:06:32;13.73;;;7.75;;
35877;SDS011;21982;49.804;24.072;2023-04-25T03:08:57;13.40;;;7.75;;
35877;SDS011;21982;49.804;24.072;2023-04-25T03:11:24;13.85;;;8.77;;
35877;SDS011;21982;49.804;24.072;2023-04-25T03:13:50;18.42;;;11.10;;
35877;SDS011;21982;49.804;24.072;2023-04-25T03:16:18;18.23;;;10.02;;
35877;SDS011;21982;49.804;24.072;2023-04-25T03:18:44;15.73;;;9.90;;
35877;SDS011;21982;49.804;24.072;2023-04-25T03:21:10;19.00;;;12.10;;
35877;SDS011;21982;49.804;24.072;2023-04-25T03:26:10;14.30;;;8.43;;
35877;SDS011;21982;49.804;24.072;2023-04-25T03:28:36;21.23;;;14.40;;
35877;SDS011;21982;49.804;24.072;2023-04-25T03:31:01;22.08;;;15.55;;
35877;SDS011;21982;49.804;24.072;2023-04-25T03:33:26;17.33;;;12.60;;
35877;SDS011;21982;49.804;24.072;2023-04-25T03:35:54;22.42;;;13.75;;
35877;SDS011;21982;49.804;24.072;2023-04-25T03:38:20;22.13;;;15.07;;
35877;SDS011;21982;49.804;24.072;2023-04-25T03:40:45;27.35;;;18.95;;
35877;SDS011;21982;49.804;24.072;2023-04-25T03:43:10;12.77;;;9.32;;
35877;SDS011;21982;49.804;24.072;2023-04-25T03:45:39;13.20;;;8.38;;
35877;SDS011;21982;49.804;24.072;2023-04-25T03:48:04;12.32;;;8.05;;
35877;SDS011;21982;49.804;24.072;2023-04-25T03:50:29;14.63;;;7.43;;
35877;SDS011;21982;49.804;24.072;2023-04-25T03:52:55;13.38;;;7.25;;
35877;SDS011;21982;49.804;24.072;2023-04-25T03:55:20;13.10;;;7.70;;
35877;SDS011;21982;49.804;24.072;2023-04-25T03:57:45;12.98;;;8.32;;
35877;SDS011;21982;49.804;24.072;2023-04-25T04:00:11;11.13;;;8.05;;
35877;SDS011;21982;49.804;24.072;2023-04-25T04:02:37;13.60;;;7.68;;
35877;SDS011;21982;49.804;24.072;2023-04-25T04:05:03;15.45;;;8.27;;
35877;SDS011;21982;49.804;24.072;2023-04-25T04:07:30;17.15;;;9.15;;
35877;SDS011;21982;49.804;24.072;2023-04-25T04:09:57;14.65;;;9.93;;
35877;SDS011;21982;49.804;24.072;2023-04-25T04:12:25;16.80;;;10.20;;
35877;SDS011;21982;49.804;24.072;2023-04-25T04:14:50;17.10;;;10.27;;
35877;SDS011;21982;49.804;24.072;2023-04-25T04:17:15;13.20;;;8.85;;
35877;SDS011;21982;49.804;24.072;2023-04-25T04:19:41;15.80;;;8.80;;
35877;SDS011;21982;49.804;24.072;2023-04-25T04:22:06;14.60;;;8.48;;
35877;SDS011;21982;49.804;24.072;2023-04-25T04:24:32;11.73;;;8.50;;
35877;SDS011;21982;49.804;24.072;2023-04-25T04:26:57;14.15;;;7.95;;
35877;SDS011;21982;49.804;24.072;2023-04-25T04:29:23;14.48;;;8.68;;
35877;SDS011;21982;49.804;24.072;2023-04-25T04:31:51;17.90;;;9.60;;
35877;SDS011;21982;49.804;24.072;2023-04-25T04:34:17;13.10;;;9.38;;
35877;SDS011;21982;49.804;24.072;2023-04-25T04:36:44;12.98;;;9.85;;
35877;SDS011;21982;49.804;24.072;2023-04-25T04:39:12;12.65;;;9.35;;
35877;SDS011;21982;49.804;24.072;2023-04-25T04:41:39;13.77;;;9.00;;
35877;SDS011;21982;49.804;24.072;2023-04-25T04:44:05;17.75;;;9.85;;
35877;SDS011;21982;49.804;24.072;2023-04-25T04:46:31;16.00;;;10.48;;
35877;SDS011;21982;49.804;24.072;2023-04-25T04:49:02;13.48;;;9.02;;
35877;SDS011;21982;49.804;24.072;2023-04-25T04:51:29;16.85;;;11.02;;
35877;SDS011;21982;49.804;24.072;2023-04-25T04:53:58;15.32;;;9.48;;
35877;SDS011;21982;49.804;24.072;2023-04-25T04:56:28;15.80;;;9.68;;
35877;SDS011;21982;49.804;24.072;2023-04-25T04:58:56;12.52;;;8.15;;
35877;SDS011;21982;49.804;24.072;2023-04-25T05:01:22;11.30;;;8.40;;
35877;SDS011;21982;49.804;24.072;2023-04-25T05:03:48;17.95;;;9.48;;
35877;SDS011;21982;49.804;24.072;2023-04-25T05:06:14;13.10;;;8.32;;
35877;SDS011;21982;49.804;24.072;2023-04-25T05:08:39;13.95;;;8.82;;
35877;SDS011;21982;49.804;24.072;2023-04-25T05:11:05;11.18;;;8.13;;
35877;SDS011;21982;49.804;24.072;2023-04-25T05:13:30;12.48;;;8.15;;
35877;SDS011;21982;49.804;24.072;2023-04-25T05:15:56;10.65;;;7.78;;
35877;SDS011;21982;49.804;24.072;2023-04-25T05:18:21;11.13;;;7.00;;
35877;SDS011;21982;49.804;24.072;2023-04-25T05:20:46;13.23;;;9.18;;
35877;SDS011;21982;49.804;24.072;2023-04-25T05:23:12;13.40;;;9.23;;
35877;SDS011;21982;49.804;24.072;2023-04-25T05:25:37;15.88;;;10.13;;
35877;SDS011;21982;49.804;24.072;2023-04-25T05:28:03;14.68;;;10.30;;
35877;SDS011;21982;49.804;24.072;2023-04-25T05:30:28;15.27;;;10.27;;
35877;SDS011;21982;49.804;24.072;2023-04-25T05:32:53;17.70;;;9.90;;
35877;SDS011;21982;49.804;24.072;2023-04-25T05:35:19;16.25;;;11.35;;
35877;SDS011;21982;49.804;24.072;2023-04-25T05:37:44;14.02;;;10.20;;
35877;SDS011;21982;49.804;24.072;2023-04-25T05:40:11;17.13;;;10.88;;
35877;SDS011;21982;49.804;24.072;2023-04-25T05:42:37;14.13;;;10.80;;
35877;SDS011;21982;49.804;24.072;2023-04-25T05:45:04;14.88;;;9.63;;
35877;SDS011;21982;49.804;24.072;2023-04-25T05:47:33;14.23;;;9.65;;
35877;SDS011;21982;49.804;24.072;2023-04-25T05:49:59;15.93;;;8.95;;
35877;SDS011;21982;49.804;24.072;2023-04-25T05:52:25;13.55;;;8.32;;
35877;SDS011;21982;49.804;24.072;2023-04-25T05:54:50;12.23;;;8.30;;
35877;SDS011;21982;49.804;24.072;2023-04-25T05:57:19;11.27;;;7.47;;
35877;SDS011;21982;49.804;24.072;2023-04-25T05:59:49;18.75;;;9.40;;
35877;SDS011;21982;49.804;24.072;2023-04-25T06:02:14;13.27;;;8.23;;
35877;SDS011;21982;49.804;24.072;2023-04-25T06:04:40;10.48;;;6.85;;
35877;SDS011;21982;49.804;24.072;2023-04-25T06:07:05;12.35;;;8.00;;
35877;SDS011;21982;49.804;24.072;2023-04-25T06:09:31;12.50;;;8.30;;
35877;SDS011;21982;49.804;24.072;2023-04-25T06:11:56;11.90;;;8.15;;
35877;SDS011;21982;49.804;24.072;2023-04-25T06:14:21;15.73;;;8.43;;
35877;SDS011;21982;49.804;24.072;2023-04-25T06:16:47;11.90;;;8.85;;
35877;SDS011;21982;49.804;24.072;2023-04-25T06:19:12;20.38;;;11.07;;
35877;SDS011;21982;49.804;24.072;2023-04-25T06:21:37;12.50;;;8.30;;
35877;SDS011;21982;49.804;24.072;2023-04-25T06:24:03;11.10;;;7.68;;
35877;SDS011;21982;49.804;24.072;2023-04-25T06:26:28;14.88;;;8.35;;
35877;SDS011;21982;49.804;24.072;2023-04-25T06:28:54;14.18;;;8.38;;
35877;SDS011;21982;49.804;24.072;2023-04-25T06:31:21;11.77;;;8.68;;
35877;SDS011;21982;49.804;24.072;2023-04-25T06:33:47;12.90;;;8.70;;
35877;SDS011;21982;49.804;24.072;2023-04-25T06:36:13;15.50;;;8.27;;
35877;SDS011;21982;49.804;24.072;2023-04-25T06:38:39;11.35;;;6.97;;
35877;SDS011;21982;49.804;24.072;2023-04-25T06:41:04;15.38;;;7.15;;
35877;SDS011;21982;49.804;24.072;2023-04-25T06:43:30;9.15;;;5.57;;
35877;SDS011;21982;49.804;24.072;2023-04-25T06:45:58;10.25;;;6.53;;
35877;SDS011;21982;49.804;24.072;2023-04-25T06:48:24;10.70;;;5.85;;
35877;SDS011;21982;49.804;24.072;2023-04-25T06:50:50;12.48;;;6.35;;
35877;SDS011;21982;49.804;24.072;2023-04-25T06:53:15;13.40;;;7.22;;
35877;SDS011;21982;49.804;24.072;2023-04-25T06:55:41;13.38;;;6.63;;
35877;SDS011;21982;49.804;24.072;2023-04-25T06:58:06;10.55;;;5.88;;
35877;SDS011;21982;49.804;24.072;2023-04-25T07:00:32;11.38;;;6.57;;
35877;SDS011;21982;49.804;24.072;2023-04-25T07:02:59;10.57;;;6.43;;
35877;SDS011;21982;49.804;24.072;2023-04-25T07:05:24;8.88;;;5.45;;
35877;SDS011;21982;49.804;24.072;2023-04-25T07:07:50;11.52;;;6.38;;
35877;SDS011;21982;49.804;24.072;2023-04-25T07:10:17;8.85;;;5.50;;
35877;SDS011;21982;49.804;24.072;2023-04-25T07:12:42;7.45;;;5.03;;
35877;SDS011;21982;49.804;24.072;2023-04-25T07:15:09;7.90;;;5.50;;
35877;SDS011;21982;49.804;24.072;2023-04-25T07:17:36;10.10;;;5.68;;
35877;SDS011;21982;49.804;24.072;2023-04-25T07:20:02;8.88;;;5.70;;
35877;SDS011;21982;49.804;24.072;2023-04-25T07:22:28;11.48;;;6.10;;
35877;SDS011;21982;49.804;24.072;2023-04-25T07:24:54;9.88;;;5.88;;
35877;SDS011;21982;49.804;24.072;2023-04-25T07:27:20;8.75;;;5.30;;
35877;SDS011;21982;49.804;24.072;2023-04-25T07:29:45;10.52;;;7.10;;
35877;SDS011;21982;49.804;24.072;2023-04-25T07:32:12;10.18;;;5.40;;
35877;SDS011;21982;49.804;24.072;2023-04-25T07:34:38;10.38;;;6.35;;
35877;SDS011;21982;49.804;24.072;2023-04-25T07:37:04;11.95;;;6.60;;
35877;SDS011;21982;49.804;24.072;2023-04-25T07:39:30;11.07;;;6.43;;
35877;SDS011;21982;49.804;24.072;2023-04-25T07:41:56;10.07;;;5.85;;
35877;SDS011;21982;49.804;24.072;2023-04-25T07:44:23;10.40;;;5.70;;
35877;SDS011;21982;49.804;24.072;2023-04-25T07:46:49;11.73;;;6.03;;
35877;SDS011;21982;49.804;24.072;2023-04-25T07:49:14;22.77;;;6.93;;
35877;SDS011;21982;49.804;24.072;2023-04-25T07:51:40;8.82;;;5.63;;
35877;SDS011;21982;49.804;24.072;2023-04-25T07:54:13;9.05;;;5.95;;
35877;SDS011;21982;49.804;24.072;2023-04-25T07:56:39;9.35;;;5.60;;
35877;SDS011;21982;49.804;24.072;2023-04-25T07:59:05;10.32;;;5.47;;
35877;SDS011;21982;49.804;24.072;2023-04-25T08:01:30;10.77;;;6.75;;
35877;SDS011;21982;49.804;24.072;2023-04-25T08:03:56;8.63;;;5.43;;
35877;SDS011;21982;49.804;24.072;2023-04-25T08:06:21;13.02;;;5.60;;
35877;SDS011;21982;49.804;24.072;2023-04-25T08:08:46;8.13;;;4.40;;
35877;SDS011;21982;49.804;24.072;2023-04-25T08:11:12;7.20;;;4.35;;
35877;SDS011;21982;49.804;24.072;2023-04-25T08:13:37;7.25;;;4.57;;
35877;SDS011;21982;49.804;24.072;2023-04-25T08:16:02;21.95;;;10.30;;
35877;SDS011;21982;49.804;24.072;2023-04-25T08:18:31;18.33;;;9.77;;
35877;SDS011;21982;49.804;24.072;2023-04-25T08:20:56;16.85;;;8.10;;
35877;SDS011;21982;49.804;24.072;2023-04-25T08:23:22;8.18;;;5.28;;
35877;SDS011;21982;49.804;24.072;2023-04-25T08:25:47;7.43;;;4.82;;
35877;SDS011;21982;49.804;24.072;2023-04-25T08:28:14;13.80;;;6.53;;
35877;SDS011;21982;49.804;24.072;2023-04-25T08:30:40;8.65;;;5.30;;
35877;SDS011;21982;49.804;24.072;2023-04-25T08:33:05;10.82;;;5.00;;
35877;SDS011;21982;49.804;24.072;2023-04-25T08:35:31;7.63;;;5.32;;
35877;SDS011;21982;49.804;24.072;2023-04-25T08:37:59;8.13;;;5.50;;
35877;SDS011;21982;49.804;24.072;2023-04-25T08:40:26;9.02;;;5.82;;
35877;SDS011;21982;49.804;24.072;2023-04-25T08:42:55;8.23;;;5.15;;
35877;SDS011;21982;49.804;24.072;2023-04-25T08:45:24;7.95;;;5.57;;
35877;SDS011;21982;49.804;24.072;2023-04-25T08:47:51;8.48;;;5.38;;
35877;SDS011;21982;49.804;24.072;2023-04-25T08:50:17;8.50;;;5.80;;
35877;SDS011;21982;49.804;24.072;2023-04-25T08:52:46;11.75;;;6.10;;
35877;SDS011;21982;49.804;24.072;2023-04-25T08:55:17;15.25;;;6.07;;
35877;SDS011;21982;49.804;24.072;2023-04-25T08:57:45;8.10;;;5.47;;
35877;SDS011;21982;49.804;24.072;2023-04-25T09:00:12;8.32;;;4.90;;
35877;SDS011;21982;49.804;24.072;2023-04-25T09:02:40;11.55;;;5.07;;
35877;SDS011;21982;49.804;24.072;2023-04-25T09:05:07;10.63;;;4.35;;
35877;SDS011;21982;49.804;24.072;2023-04-25T09:07:34;9.60;;;4.55;;
35877;SDS011;21982;49.804;24.072;2023-04-25T09:10:00;8.85;;;5.18;;
35877;SDS011;21982;49.804;24.072;2023-04-25T09:12:28;8.13;;;4.57;;
35877;SDS011;21982;49.804;24.072;2023-04-25T09:15:05;12.10;;;4.82;;
35877;SDS011;21982;49.804;24.072;2023-04-25T09:17:32;7.95;;;5.28;;
35877;SDS011;21982;49.804;24.072;2023-04-25T09:20:07;7.55;;;4.72;;
35877;SDS011;21982;49.804;24.072;2023-04-25T09:22:38;9.05;;;5.13;;
35877;SDS011;21982;49.804;24.072;2023-04-25T09:25:08;8.70;;;5.07;;
35877;SDS011;21982;49.804;24.072;2023-04-25T09:27:51;11.48;;;5.43;;
35877;SDS011;21982;49.804;24.072;2023-04-25T09:30:26;10.82;;;5.20;;
35877;SDS011;21982;49.804;24.072;2023-04-25T09:32:56;8.57;;;5.18;;
35877;SDS011;21982;49.804;24.072;2023-04-25T09:35:23;8.60;;;6.32;;
35877;SDS011;21982;49.804;24.072;2023-04-25T09:37:50;8.02;;;5.18;;
35877;SDS011;21982;49.804;24.072;2023-04-25T09:40:17;8.52;;;5.68;;
35877;SDS011;21982;49.804;24.072;2023-04-25T09:42:43;9.98;;;5.10;;
35877;SDS011;21982;49.804;24.072;2023-04-25T09:45:08;8.80;;;5.13;;
35877;SDS011;21982;49.804;24.072;2023-04-25T09:47:40;8.52;;;5.30;;
35877;SDS011;21982;49.804;24.072;2023-04-25T09:50:13;8.05;;;5.20;;
35877;SDS011;21982;49.804;24.072;2023-04-25T09:52:41;12.73;;;7.93;;
35877;SDS011;21982;49.804;24.072;2023-04-25T09:55:07;9.40;;;4.82;;
35877;SDS011;21982;49.804;24.072;2023-04-25T09:57:33;10.60;;;5.80;;
35877;SDS011;21982;49.804;24.072;2023-04-25T10:00:00;9.77;;;6.20;;
35877;SDS011;21982;49.804;24.072;2023-04-25T10:02:29;9.40;;;5.22;;
35877;SDS011;21982;49.804;24.072;2023-04-25T10:04:57;8.50;;;5.70;;
35877;SDS011;21982;49.804;24.072;2023-04-25T10:07:29;9.00;;;5.32;;
35877;SDS011;21982;49.804;24.072;2023-04-25T10:09:59;7.47;;;4.97;;
35877;SDS011;21982;49.804;24.072;2023-04-25T10:12:28;14.45;;;5.70;;
35877;SDS011;21982;49.804;24.072;2023-04-25T10:14:56;8.63;;;5.25;;
35877;SDS011;21982;49.804;24.072;2023-04-25T10:17:23;9.43;;;6.22;;
35877;SDS011;21982;49.804;24.072;2023-04-25T10:19:48;9.07;;;5.28;;
35877;SDS011;21982;49.804;24.072;2023-04-25T10:22:18;10.07;;;6.05;;
35877;SDS011;21982;49.804;24.072;2023-04-25T10:24:49;7.95;;;5.35;;
35877;SDS011;21982;49.804;24.072;2023-04-25T10:27:16;9.32;;;5.47;;
35877;SDS011;21982;49.804;24.072;2023-04-25T10:29:42;8.60;;;5.70;;
35877;SDS011;21982;49.804;24.072;2023-04-25T10:32:10;9.02;;;6.03;;
35877;SDS011;21982;49.804;24.072;2023-04-25T10:37:13;8.13;;;6.05;;
35877;SDS011;21982;49.804;24.072;2023-04-25T10:39:39;8.18;;;6.32;;
35877;SDS011;21982;49.804;24.072;2023-04-25T10:42:09;9.40;;;6.47;;
35877;SDS011;21982;49.804;24.072;2023-04-25T10:44:36;10.55;;;6.85;;
35877;SDS011;21982;49.804;24.072;2023-04-25T10:47:02;8.73;;;5.43;;
35877;SDS011;21982;49.804;24.072;2023-04-25T10:49:36;10.25;;;6.25;;
35877;SDS011;21982;49.804;24.072;2023-04-25T10:54:51;8.95;;;5.60;;
35877;SDS011;21982;49.804;24.072;2023-04-25T10:57:28;9.90;;;5.47;;
35877;SDS011;21982;49.804;24.072;2023-04-25T11:02:51;12.10;;;5.75;;
35877;SDS011;21982;49.804;24.072;2023-04-25T11:07:56;10.48;;;6.25;;
35877;SDS011;21982;49.804;24.072;2023-04-25T11:10:26;7.05;;;5.13;;
35877;SDS011;21982;49.804;24.072;2023-04-25T11:12:53;11.90;;;6.47;;
35877;SDS011;21982;49.804;24.072;2023-04-25T11:15:19;8.02;;;5.88;;
35877;SDS011;21982;49.804;24.072;2023-04-25T11:17:44;10.35;;;5.15;;
35877;SDS011;21982;49.804;24.072;2023-04-25T11:20:11;8.23;;;5.22;;
35877;SDS011;21982;49.804;24.072;2023-04-25T11:22:38;8.63;;;5.80;;
35877;SDS011;21982;49.804;24.072;2023-04-25T11:25:08;7.47;;;4.63;;
35877;SDS011;21982;49.804;24.072;2023-04-25T11:27:37;12.48;;;5.93;;
35877;SDS011;21982;49.804;24.072;2023-04-25T11:30:13;10.57;;;5.40;;
35877;SDS011;21982;49.804;24.072;2023-04-25T11:32:40;13.85;;;6.78;;
35877;SDS011;21982;49.804;24.072;2023-04-25T11:35:07;9.48;;;5.55;;
35877;SDS011;21982;49.804;24.072;2023-04-25T11:37:33;11.25;;;6.88;;
35877;SDS011;21982;49.804;24.072;2023-04-25T11:39:59;9.00;;;5.13;;
35877;SDS011;21982;49.804;24.072;2023-04-25T11:42:25;6.32;;;4.55;;
35877;SDS011;21982;49.804;24.072;2023-04-25T11:44:51;9.73;;;5.40;;
35877;SDS011;21982;49.804;24.072;2023-04-25T11:47:16;13.90;;;5.05;;
35877;SDS011;21982;49.804;24.072;2023-04-25T11:49:42;12.70;;;5.53;;
35877;SDS011;21982;49.804;24.072;2023-04-25T11:52:07;8.43;;;5.00;;
35877;SDS011;21982;49.804;24.072;2023-04-25T11:54:35;8.38;;;4.93;;
35877;SDS011;21982;49.804;24.072;2023-04-25T11:57:01;9.82;;;5.57;;
35877;SDS011;21982;49.804;24.072;2023-04-25T11:59:28;7.53;;;4.75;;
35877;SDS011;21982;49.804;24.072;2023-04-25T12:01:53;8.15;;;4.53;;
35877;SDS011;21982;49.804;24.072;2023-04-25T12:04:23;10.95;;;5.95;;
35877;SDS011;21982;49.804;24.072;2023-04-25T12:06:51;8.25;;;5.93;;
35877;SDS011;21982;49.804;24.072;2023-04-25T12:09:18;7.35;;;5.60;;
35877;SDS011;21982;49.804;24.072;2023-04-25T12:11:47;8.95;;;5.22;;
35877;SDS011;21982;49.804;24.072;2023-04-25T12:14:21;8.27;;;5.10;;
35877;SDS011;21982;49.804;24.072;2023-04-25T12:16:51;7.03;;;4.78;;
35877;SDS011;21982;49.804;24.072;2023-04-25T12:19:17;10.82;;;5.80;;
35877;SDS011;21982;49.804;24.072;2023-04-25T12:21:44;8.82;;;5.57;;
35877;SDS011;21982;49.804;24.072;2023-04-25T12:24:17;11.10;;;5.95;;
35877;SDS011;21982;49.804;24.072;2023-04-25T12:29:31;13.05;;;5.53;;
35877;SDS011;21982;49.804;24.072;2023-04-25T12:31:58;12.70;;;5.80;;
35877;SDS011;21982;49.804;24.072;2023-04-25T12:34:24;9.05;;;5.32;;
35877;SDS011;21982;49.804;24.072;2023-04-25T12:36:51;8.85;;;5.47;;
35877;SDS011;21982;49.804;24.072;2023-04-25T12:41:53;9.07;;;5.60;;
35877;SDS011;21982;49.804;24.072;2023-04-25T12:44:19;12.43;;;5.90;;
35877;SDS011;21982;49.804;24.072;2023-04-25T12:46:46;7.97;;;6.20;;
35877;SDS011;21982;49.804;24.072;2023-04-25T12:49:13;9.25;;;5.38;;
35877;SDS011;21982;49.804;24.072;2023-04-25T12:51:39;10.85;;;6.30;;
35877;SDS011;21982;49.804;24.072;2023-04-25T12:54:06;8.48;;;5.35;;
35877;SDS011;21982;49.804;24.072;2023-04-25T12:56:33;8.35;;;5.95;;
35877;SDS011;21982;49.804;24.072;2023-04-25T12:58:58;10.95;;;6.75;;
35877;SDS011;21982;49.804;24.072;2023-04-25T13:01:25;14.43;;;7.43;;
35877;SDS011;21982;49.804;24.072;2023-04-25T13:03:51;11.25;;;6.03;;
35877;SDS011;21982;49.804;24.072;2023-04-25T13:06:17;14.55;;;6.32;;
35877;SDS011;21982;49.804;24.072;2023-04-25T13:08:44;12.13;;;5.47;;
35877;SDS011;21982;49.804;24.072;2023-04-25T13:11:09;8.65;;;5.00;;
35877;SDS011;21982;49.804;24.072;2023-04-25T13:13:36;13.68;;;4.65;;
35877;SDS011;21982;49.804;24.072;2023-04-25T13:16:01;12.55;;;5.95;;
35877;SDS011;21982;49.804;24.072;2023-04-25T13:18:28;14.55;;;6.68;;
35877;SDS011;21982;49.804;24.072;2023-04-25T13:20:55;11.38;;;6.75;;
35877;SDS011;21982;49.804;24.072;2023-04-25T13:23:21;15.02;;;7.88;;
35877;SDS011;21982;49.804;24.072;2023-04-25T13:25:47;18.13;;;6.75;;
35877;SDS011;21982;49.804;24.072;2023-04-25T13:28:16;12.63;;;6.43;;
35877;SDS011;21982;49.804;24.072;2023-04-25T13:30:42;10.77;;;4.75;;
35877;SDS011;21982;49.804;24.072;2023-04-25T13:33:08;9.55;;;6.18;;
35877;SDS011;21982;49.804;24.072;2023-04-25T13:35:34;11.02;;;6.32;;
35877;SDS011;21982;49.804;24.072;2023-04-25T13:38:00;11.15;;;5.78;;
35877;SDS011;21982;49.804;24.072;2023-04-25T13:40:26;13.90;;;5.95;;
35877;SDS011;21982;49.804;24.072;2023-04-25T13:42:52;12.60;;;8.20;;
35877;SDS011;21982;49.804;24.072;2023-04-25T13:45:18;11.95;;;5.63;;
35877;SDS011;21982;49.804;24.072;2023-04-25T13:47:46;10.45;;;5.40;;
35877;SDS011;21982;49.804;24.072;2023-04-25T13:50:12;13.75;;;5.18;;
35877;SDS011;21982;49.804;24.072;2023-04-25T13:52:38;11.40;;;6.05;;
35877;SDS011;21982;49.804;24.072;2023-04-25T13:55:04;10.27;;;6.35;;
35877;SDS011;21982;49.804;24.072;2023-04-25T13:57:31;12.45;;;7.55;;
35877;SDS011;21982;49.804;24.072;2023-04-25T13:59:57;13.57;;;6.47;;
35877;SDS011;21982;49.804;24.072;2023-04-25T14:02:23;10.65;;;5.95;;
35877;SDS011;21982;49.804;24.072;2023-04-25T14:04:48;9.90;;;5.93;;
35877;SDS011;21982;49.804;24.072;2023-04-25T14:07:14;10.38;;;6.60;;
35877;SDS011;21982;49.804;24.072;2023-04-25T14:09:42;10.18;;;5.63;;
35877;SDS011;21982;49.804;24.072;2023-04-25T14:12:08;9.55;;;5.88;;
35877;SDS011;21982;49.804;24.072;2023-04-25T14:14:34;10.88;;;5.85;;
35877;SDS011;21982;49.804;24.072;2023-04-25T14:16:59;10.85;;;5.88;;
35877;SDS011;21982;49.804;24.072;2023-04-25T14:19:25;9.70;;;4.82;;
35877;SDS011;21982;49.804;24.072;2023-04-25T14:21:50;8.93;;;5.50;;
35877;SDS011;21982;49.804;24.072;2023-04-25T14:24:16;9.85;;;5.32;;
35877;SDS011;21982;49.804;24.072;2023-04-25T14:26:41;7.45;;;4.50;;
35877;SDS011;21982;49.804;24.072;2023-04-25T14:29:07;12.18;;;5.45;;
35877;SDS011;21982;49.804;24.072;2023-04-25T14:31:33;8.63;;;4.63;;
35877;SDS011;21982;49.804;24.072;2023-04-25T14:34:00;9.30;;;6.13;;
35877;SDS011;21982;49.804;24.072;2023-04-25T14:36:26;10.05;;;6.95;;
35877;SDS011;21982;49.804;24.072;2023-04-25T14:38:52;11.13;;;7.65;;
35877;SDS011;21982;49.804;24.072;2023-04-25T14:41:18;10.30;;;8.25;;